Terminal Aerodrome Forecast
Issued by NWS Miami, FL

Current Version | Previous Version | Text Only | Print | Product List | Glossary On
Versions: 1 2 3 4 5 6 7 8 9 10 11 12 13 14 15 16 17 18 19 20 21 22 23 24 25 26 27 28
000
FTUS42 KMFL 210524
TAFAPF
TAF
KAPF 210524Z 2106/2206 05005KT P6SM FEW050 SCT120
     FM211400 05006KT P6SM SCT035
     FM211700 30006KT P6SM VCSH SCT040
     FM220100 VRB02KT P6SM SCT050=

USA.gov is the U.S. government's official web portal to all federal, state and local government web resources and services.